sensor_id;sensor_type;location;lat;lon;timestamp;pressure;altitude;pressure_sealevel;temperature
70415;BMP280;57837;52.064;113.478;2023-01-24T00:01:43;94890.94;;;-32.55
70415;BMP280;57837;52.064;113.478;2023-01-24T00:04:47;94884.78;;;-32.48
70415;BMP280;57837;52.064;113.478;2023-01-24T00:07:50;94883.91;;;-32.47
70415;BMP280;57837;52.064;113.478;2023-01-24T00:11:03;94886.31;;;-32.47
70415;BMP280;57837;52.064;113.478;2023-01-24T00:14:06;94889.63;;;-32.59
70415;BMP280;57837;52.064;113.478;2023-01-24T00:17:10;94878.56;;;-32.71
70415;BMP280;57837;52.064;113.478;2023-01-24T00:20:14;94875.28;;;-32.70
70415;BMP280;57837;52.064;113.478;2023-01-24T00:23:19;94869.59;;;-32.69
70415;BMP280;57837;52.064;113.478;2023-01-24T00:26:23;94872.91;;;-32.61
70415;BMP280;57837;52.064;113.478;2023-01-24T00:29:27;94872.06;;;-32.29
70415;BMP280;57837;52.064;113.478;2023-01-24T00:32:32;94865.84;;;-32.32
70415;BMP280;57837;52.064;113.478;2023-01-24T00:35:36;94857.41;;;-32.47
70415;BMP280;57837;52.064;113.478;2023-01-24T00:38:39;94848.56;;;-32.37
70415;BMP280;57837;52.064;113.478;2023-01-24T00:41:43;94845.00;;;-32.12
70415;BMP280;57837;52.064;113.478;2023-01-24T00:44:48;94841.56;;;-31.99
70415;BMP280;57837;52.064;113.478;2023-01-24T00:47:52;94845.16;;;-31.94
70415;BMP280;57837;52.064;113.478;2023-01-24T00:50:55;94846.53;;;-31.91
70415;BMP280;57837;52.064;113.478;2023-01-24T00:54:00;94835.41;;;-31.82
70415;BMP280;57837;52.064;113.478;2023-01-24T00:57:03;94841.63;;;-31.70
70415;BMP280;57837;52.064;113.478;2023-01-24T01:00:08;94837.06;;;-31.73
70415;BMP280;57837;52.064;113.478;2023-01-24T01:03:14;94840.72;;;-31.89
70415;BMP280;57837;52.064;113.478;2023-01-24T01:06:18;94832.25;;;-32.23
70415;BMP280;57837;52.064;113.478;2023-01-24T01:09:21;94830.00;;;-32.46
70415;BMP280;57837;52.064;113.478;2023-01-24T01:12:25;94821.94;;;-32.56
70415;BMP280;57837;52.064;113.478;2023-01-24T01:15:29;94817.50;;;-32.30
70415;BMP280;57837;52.064;113.478;2023-01-24T01:18:34;94818.19;;;-32.18
70415;BMP280;57837;52.064;113.478;2023-01-24T01:21:38;94815.28;;;-32.02
70415;BMP280;57837;52.064;113.478;2023-01-24T01:24:41;94818.00;;;-31.76
70415;BMP280;57837;52.064;113.478;2023-01-24T01:27:44;94808.88;;;-31.24
70415;BMP280;57837;52.064;113.478;2023-01-24T01:30:55;94806.41;;;-30.76
70415;BMP280;57837;52.064;113.478;2023-01-24T01:33:59;94803.97;;;-30.38
70415;BMP280;57837;52.064;113.478;2023-01-24T01:37:02;94800.50;;;-30.26
70415;BMP280;57837;52.064;113.478;2023-01-24T01:40:06;94793.63;;;-30.58
70415;BMP280;57837;52.064;113.478;2023-01-24T01:43:13;94792.50;;;-31.21
70415;BMP280;57837;52.064;113.478;2023-01-24T01:46:21;94786.16;;;-31.41
70415;BMP280;57837;52.064;113.478;2023-01-24T01:49:27;94780.81;;;-31.54
70415;BMP280;57837;52.064;113.478;2023-01-24T01:52:36;94777.38;;;-31.52
70415;BMP280;57837;52.064;113.478;2023-01-24T01:55:44;94771.66;;;-31.22
70415;BMP280;57837;52.064;113.478;2023-01-24T01:58:50;94761.41;;;-30.86
70415;BMP280;57837;52.064;113.478;2023-01-24T02:01:57;94761.31;;;-30.67
70415;BMP280;57837;52.064;113.478;2023-01-24T02:05:05;94754.84;;;-29.93
70415;BMP280;57837;52.064;113.478;2023-01-24T02:08:10;94748.69;;;-29.52
70415;BMP280;57837;52.064;113.478;2023-01-24T02:11:15;94739.88;;;-29.53
70415;BMP280;57837;52.064;113.478;2023-01-24T02:14:38;94741.59;;;-29.45
70415;BMP280;57837;52.064;113.478;2023-01-24T02:18:00;94738.44;;;-29.46
70415;BMP280;57837;52.064;113.478;2023-01-24T02:21:11;94738.38;;;-29.72
70415;BMP280;57837;52.064;113.478;2023-01-24T02:24:31;94732.84;;;-29.82
70415;BMP280;57837;52.064;113.478;2023-01-24T02:27:35;94728.75;;;-30.00
70415;BMP280;57837;52.064;113.478;2023-01-24T02:30:39;94723.16;;;-30.00
70415;BMP280;57837;52.064;113.478;2023-01-24T02:33:42;94721.59;;;-29.91
70415;BMP280;57837;52.064;113.478;2023-01-24T02:36:46;94716.03;;;-29.84
70415;BMP280;57837;52.064;113.478;2023-01-24T02:39:59;94713.94;;;-29.35
70415;BMP280;57837;52.064;113.478;2023-01-24T02:43:06;94699.69;;;-28.69
70415;BMP280;57837;52.064;113.478;2023-01-24T02:46:10;94702.88;;;-28.02
70415;BMP280;57837;52.064;113.478;2023-01-24T02:49:15;94705.38;;;-28.44
70415;BMP280;57837;52.064;113.478;2023-01-24T02:52:18;94682.94;;;-28.38
70415;BMP280;57837;52.064;113.478;2023-01-24T02:55:40;94675.25;;;-28.33
70415;BMP280;57837;52.064;113.478;2023-01-24T02:59:04;94663.56;;;-28.14
70415;BMP280;57837;52.064;113.478;2023-01-24T03:02:09;94667.81;;;-27.91
70415;BMP280;57837;52.064;113.478;2023-01-24T03:05:12;94664.00;;;-27.94
70415;BMP280;57837;52.064;113.478;2023-01-24T03:08:16;94654.59;;;-27.89
70415;BMP280;57837;52.064;113.478;2023-01-24T03:11:25;94647.31;;;-27.89
70415;BMP280;57837;52.064;113.478;2023-01-24T03:14:29;94638.31;;;-27.64
70415;BMP280;57837;52.064;113.478;2023-01-24T03:17:51;94632.53;;;-27.46
70415;BMP280;57837;52.064;113.478;2023-01-24T03:21:14;94620.22;;;-27.14
70415;BMP280;57837;52.064;113.478;2023-01-24T03:24:37;94612.44;;;-26.78
70415;BMP280;57837;52.064;113.478;2023-01-24T03:28:05;94609.66;;;-25.91
70415;BMP280;57837;52.064;113.478;2023-01-24T03:31:28;94602.00;;;-25.88
70415;BMP280;57837;52.064;113.478;2023-01-24T03:34:53;94602.97;;;-25.59
70415;BMP280;57837;52.064;113.478;2023-01-24T03:38:02;94600.16;;;-25.27
70415;BMP280;57837;52.064;113.478;2023-01-24T03:41:24;94594.97;;;-25.53
70415;BMP280;57837;52.064;113.478;2023-01-24T03:44:29;94593.31;;;-25.53
70415;BMP280;57837;52.064;113.478;2023-01-24T03:47:32;94588.56;;;-25.54
70415;BMP280;57837;52.064;113.478;2023-01-24T03:50:38;94573.53;;;-25.58
70415;BMP280;57837;52.064;113.478;2023-01-24T03:54:03;94568.28;;;-25.40
70415;BMP280;57837;52.064;113.478;2023-01-24T03:57:15;94565.28;;;-25.21
70415;BMP280;57837;52.064;113.478;2023-01-24T04:00:19;94554.56;;;-25.26
70415;BMP280;57837;52.064;113.478;2023-01-24T04:03:31;94547.94;;;-25.11
70415;BMP280;57837;52.064;113.478;2023-01-24T04:06:35;94546.28;;;-24.61
70415;BMP280;57837;52.064;113.478;2023-01-24T04:09:43;94544.72;;;-24.19
70415;BMP280;57837;52.064;113.478;2023-01-24T04:12:46;94529.69;;;-24.09
70415;BMP280;57837;52.064;113.478;2023-01-24T04:15:51;94526.75;;;-24.33
70415;BMP280;57837;52.064;113.478;2023-01-24T04:19:16;94517.22;;;-24.56
70415;BMP280;57837;52.064;113.478;2023-01-24T04:22:20;94509.72;;;-24.82
70415;BMP280;57837;52.064;113.478;2023-01-24T04:25:27;94505.56;;;-24.82
70415;BMP280;57837;52.064;113.478;2023-01-24T04:28:31;94497.63;;;-24.69
70415;BMP280;57837;52.064;113.478;2023-01-24T04:31:37;94485.03;;;-24.31
70415;BMP280;57837;52.064;113.478;2023-01-24T04:35:04;94472.66;;;-23.88
70415;BMP280;57837;52.064;113.478;2023-01-24T04:38:24;94468.53;;;-23.75
70415;BMP280;57837;52.064;113.478;2023-01-24T04:41:54;94450.84;;;-23.83
70415;BMP280;57837;52.064;113.478;2023-01-24T04:44:58;94441.75;;;-24.03
70415;BMP280;57837;52.064;113.478;2023-01-24T04:48:02;94443.16;;;-23.87
70415;BMP280;57837;52.064;113.478;2023-01-24T04:51:06;94431.72;;;-23.60
70415;BMP280;57837;52.064;113.478;2023-01-24T04:54:12;94435.47;;;-23.57
70415;BMP280;57837;52.064;113.478;2023-01-24T04:57:16;94429.44;;;-23.55
70415;BMP280;57837;52.064;113.478;2023-01-24T05:00:21;94411.00;;;-23.51
70415;BMP280;57837;52.064;113.478;2023-01-24T05:03:25;94407.06;;;-23.72
70415;BMP280;57837;52.064;113.478;2023-01-24T05:06:31;94392.91;;;-23.83
70415;BMP280;57837;52.064;113.478;2023-01-24T05:09:34;94388.78;;;-23.82
70415;BMP280;57837;52.064;113.478;2023-01-24T05:12:42;94382.56;;;-23.91
70415;BMP280;57837;52.064;113.478;2023-01-24T05:15:51;94373.69;;;-24.12
70415;BMP280;57837;52.064;113.478;2023-01-24T05:18:54;94368.78;;;-24.12
70415;BMP280;57837;52.064;113.478;2023-01-24T05:21:59;94362.75;;;-24.16
70415;BMP280;57837;52.064;113.478;2023-01-24T05:25:08;94348.09;;;-24.10
70415;BMP280;57837;52.064;113.478;2023-01-24T05:28:15;94338.16;;;-24.08
70415;BMP280;57837;52.064;113.478;2023-01-24T05:31:21;94317.09;;;-24.09
70415;BMP280;57837;52.064;113.478;2023-01-24T05:34:26;94313.94;;;-23.97
70415;BMP280;57837;52.064;113.478;2023-01-24T05:37:29;94313.19;;;-23.97
70415;BMP280;57837;52.064;113.478;2023-01-24T05:40:32;94300.97;;;-23.97
70415;BMP280;57837;52.064;113.478;2023-01-24T05:43:37;94301.53;;;-24.02
70415;BMP280;57837;52.064;113.478;2023-01-24T05:46:41;94296.44;;;-23.93
70415;BMP280;57837;52.064;113.478;2023-01-24T05:49:54;94293.25;;;-23.67
70415;BMP280;57837;52.064;113.478;2023-01-24T05:53:01;94287.44;;;-23.86
70415;BMP280;57837;52.064;113.478;2023-01-24T05:56:14;94283.47;;;-23.87
70415;BMP280;57837;52.064;113.478;2023-01-24T05:59:19;94271.78;;;-23.85
70415;BMP280;57837;52.064;113.478;2023-01-24T06:02:22;94263.72;;;-23.59
70415;BMP280;57837;52.064;113.478;2023-01-24T06:05:27;94269.13;;;-23.37
70415;BMP280;57837;52.064;113.478;2023-01-24T06:08:30;94264.97;;;-23.37
70415;BMP280;57837;52.064;113.478;2023-01-24T06:11:34;94254.78;;;-23.27
70415;BMP280;57837;52.064;113.478;2023-01-24T06:14:51;94257.41;;;-23.29
70415;BMP280;57837;52.064;113.478;2023-01-24T06:17:54;94253.31;;;-23.35
70415;BMP280;57837;52.064;113.478;2023-01-24T06:20:58;94259.25;;;-23.11
70415;BMP280;57837;52.064;113.478;2023-01-24T06:24:01;94259.28;;;-22.73
70415;BMP280;57837;52.064;113.478;2023-01-24T06:27:18;94263.44;;;-22.73
70415;BMP280;57837;52.064;113.478;2023-01-24T06:30:22;94257.94;;;-22.37
70415;BMP280;57837;52.064;113.478;2023-01-24T06:40:28;94256.22;;;-22.30
70415;BMP280;57837;52.064;113.478;2023-01-24T06:43:33;94250.66;;;-22.44
70415;BMP280;57837;52.064;113.478;2023-01-24T06:46:36;94245.09;;;-22.64
70415;BMP280;57837;52.064;113.478;2023-01-24T06:49:40;94238.25;;;-22.49
70415;BMP280;57837;52.064;113.478;2023-01-24T06:52:48;94235.41;;;-22.21
70415;BMP280;57837;52.064;113.478;2023-01-24T06:55:51;94232.97;;;-21.96
70415;BMP280;57837;52.064;113.478;2023-01-24T06:58:54;94228.00;;;-21.89
70415;BMP280;57837;52.064;113.478;2023-01-24T07:01:58;94218.47;;;-21.79
70415;BMP280;57837;52.064;113.478;2023-01-24T07:05:02;94222.69;;;-21.86
70415;BMP280;57837;52.064;113.478;2023-01-24T07:08:06;94222.41;;;-21.96
70415;BMP280;57837;52.064;113.478;2023-01-24T07:11:12;94218.25;;;-21.96
70415;BMP280;57837;52.064;113.478;2023-01-24T07:14:15;94209.31;;;-21.90
70415;BMP280;57837;52.064;113.478;2023-01-24T07:17:18;94192.44;;;-21.80
70415;BMP280;57837;52.064;113.478;2023-01-24T07:20:22;94200.63;;;-22.11
70415;BMP280;57837;52.064;113.478;2023-01-24T07:23:26;94199.47;;;-22.27
70415;BMP280;57837;52.064;113.478;2023-01-24T07:26:35;94192.91;;;-22.33
70415;BMP280;57837;52.064;113.478;2023-01-24T07:29:38;94185.22;;;-22.18
70415;BMP280;57837;52.064;113.478;2023-01-24T07:32:41;94175.41;;;-22.18
70415;BMP280;57837;52.064;113.478;2023-01-24T07:35:45;94171.91;;;-22.04
70415;BMP280;57837;52.064;113.478;2023-01-24T07:38:52;94163.06;;;-21.86
70415;BMP280;57837;52.064;113.478;2023-01-24T07:41:55;94174.53;;;-21.80
70415;BMP280;57837;52.064;113.478;2023-01-24T07:44:59;94161.75;;;-22.07
70415;BMP280;57837;52.064;113.478;2023-01-24T07:48:02;94157.56;;;-22.25
70415;BMP280;57837;52.064;113.478;2023-01-24T07:51:05;94145.06;;;-22.17
70415;BMP280;57837;52.064;113.478;2023-01-24T07:54:09;94150.72;;;-22.17
70415;BMP280;57837;52.064;113.478;2023-01-24T07:57:12;94139.56;;;-22.12
70415;BMP280;57837;52.064;113.478;2023-01-24T08:00:16;94143.09;;;-22.27
70415;BMP280;57837;52.064;113.478;2023-01-24T08:03:19;94144.69;;;-22.39
70415;BMP280;57837;52.064;113.478;2023-01-24T08:06:24;94133.84;;;-22.50
70415;BMP280;57837;52.064;113.478;2023-01-24T08:09:28;94135.59;;;-22.57
70415;BMP280;57837;52.064;113.478;2023-01-24T08:12:32;94135.09;;;-22.65
70415;BMP280;57837;52.064;113.478;2023-01-24T08:15:35;94135.78;;;-22.58
70415;BMP280;57837;52.064;113.478;2023-01-24T08:18:39;94127.53;;;-22.64
70415;BMP280;57837;52.064;113.478;2023-01-24T08:21:49;94121.78;;;-22.76
70415;BMP280;57837;52.064;113.478;2023-01-24T08:24:54;94124.69;;;-22.86
70415;BMP280;57837;52.064;113.478;2023-01-24T08:27:57;94117.59;;;-23.01
70415;BMP280;57837;52.064;113.478;2023-01-24T08:31:00;94102.97;;;-23.07
70415;BMP280;57837;52.064;113.478;2023-01-24T08:34:04;94097.91;;;-23.12
70415;BMP280;57837;52.064;113.478;2023-01-24T08:37:08;94093.44;;;-23.22
70415;BMP280;57837;52.064;113.478;2023-01-24T08:40:11;94086.75;;;-23.33
70415;BMP280;57837;52.064;113.478;2023-01-24T08:43:14;94093.75;;;-23.44
70415;BMP280;57837;52.064;113.478;2023-01-24T08:46:18;94087.25;;;-23.63
70415;BMP280;57837;52.064;113.478;2023-01-24T08:49:22;94090.88;;;-23.79
70415;BMP280;57837;52.064;113.478;2023-01-24T08:52:26;94088.47;;;-23.92
70415;BMP280;57837;52.064;113.478;2023-01-24T08:55:30;94086.84;;;-24.11
70415;BMP280;57837;52.064;113.478;2023-01-24T08:58:33;94087.25;;;-24.21
70415;BMP280;57837;52.064;113.478;2023-01-24T09:01:37;94089.88;;;-24.29
70415;BMP280;57837;52.064;113.478;2023-01-24T09:04:40;94082.56;;;-24.49
70415;BMP280;57837;52.064;113.478;2023-01-24T09:07:46;94078.44;;;-24.49
70415;BMP280;57837;52.064;113.478;2023-01-24T09:10:49;94067.53;;;-24.39
70415;BMP280;57837;52.064;113.478;2023-01-24T09:13:53;94064.19;;;-24.45
70415;BMP280;57837;52.064;113.478;2023-01-24T09:16:56;94066.03;;;-24.40
70415;BMP280;57837;52.064;113.478;2023-01-24T09:19:59;94061.16;;;-24.47
70415;BMP280;57837;52.064;113.478;2023-01-24T09:23:13;94054.41;;;-24.52
70415;BMP280;57837;52.064;113.478;2023-01-24T09:26:16;94062.66;;;-24.53
70415;BMP280;57837;52.064;113.478;2023-01-24T09:29:20;94052.72;;;-24.58
70415;BMP280;57837;52.064;113.478;2023-01-24T09:32:23;94058.34;;;-24.57
70415;BMP280;57837;52.064;113.478;2023-01-24T09:35:26;94056.09;;;-24.65
70415;BMP280;57837;52.064;113.478;2023-01-24T09:38:31;94046.13;;;-24.64
70415;BMP280;57837;52.064;113.478;2023-01-24T09:41:44;94041.84;;;-24.62
70415;BMP280;57837;52.064;113.478;2023-01-24T09:45:14;94046.13;;;-24.64
70415;BMP280;57837;52.064;113.478;2023-01-24T09:48:22;94044.28;;;-24.68
70415;BMP280;57837;52.064;113.478;2023-01-24T09:51:29;94033.56;;;-24.87
70415;BMP280;57837;52.064;113.478;2023-01-24T10:01:36;94040.50;;;-24.58
70415;BMP280;57837;52.064;113.478;2023-01-24T10:04:44;94031.13;;;-24.61
70415;BMP280;57837;52.064;113.478;2023-01-24T10:25:48;94015.34;;;-25.51
70415;BMP280;57837;52.064;113.478;2023-01-24T10:28:34;94005.94;;;-25.48
70415;BMP280;57837;52.064;113.478;2023-01-24T10:31:44;94005.41;;;-25.16
70415;BMP280;57837;52.064;113.478;2023-01-24T10:34:54;94002.81;;;-25.02
70415;BMP280;57837;52.064;113.478;2023-01-24T10:38:04;93992.31;;;-25.02
70415;BMP280;57837;52.064;113.478;2023-01-24T10:44:25;93986.28;;;-24.93
70415;BMP280;57837;52.064;113.478;2023-01-24T10:50:50;93978.75;;;-24.91
70415;BMP280;57837;52.064;113.478;2023-01-24T10:54:01;93976.16;;;-25.16
70415;BMP280;57837;52.064;113.478;2023-01-24T11:00:44;93973.91;;;-25.11
70415;BMP280;57837;52.064;113.478;2023-01-24T11:03:50;93976.91;;;-25.09
70415;BMP280;57837;52.064;113.478;2023-01-24T11:06:53;93977.88;;;-25.04
70415;BMP280;57837;52.064;113.478;2023-01-24T11:10:23;93973.34;;;-25.00
70415;BMP280;57837;52.064;113.478;2023-01-24T11:13:34;93964.72;;;-24.96
70415;BMP280;57837;52.064;113.478;2023-01-24T11:16:45;93966.97;;;-25.01
70415;BMP280;57837;52.064;113.478;2023-01-24T11:19:58;93971.47;;;-25.11
70415;BMP280;57837;52.064;113.478;2023-01-24T11:23:03;93958.53;;;-25.32
70415;BMP280;57837;52.064;113.478;2023-01-24T11:26:21;93957.78;;;-25.39
70415;BMP280;57837;52.064;113.478;2023-01-24T11:29:25;93962.09;;;-25.41
70415;BMP280;57837;52.064;113.478;2023-01-24T11:36:02;93955.72;;;-25.55
70415;BMP280;57837;52.064;113.478;2023-01-24T11:39:20;93941.22;;;-25.77
70415;BMP280;57837;52.064;113.478;2023-01-24T11:42:36;93948.91;;;-25.86
70415;BMP280;57837;52.064;113.478;2023-01-24T11:52:50;93937.44;;;-25.99
70415;BMP280;57837;52.064;113.478;2023-01-24T11:57:19;93948.09;;;-26.13
70415;BMP280;57837;52.064;113.478;2023-01-24T12:06:35;93931.22;;;-26.08
70415;BMP280;57837;52.064;113.478;2023-01-24T12:09:59;93930.28;;;-26.07
70415;BMP280;57837;52.064;113.478;2023-01-24T12:20:35;93924.66;;;-26.14
70415;BMP280;57837;52.064;113.478;2023-01-24T12:27:23;93926.75;;;-25.98
70415;BMP280;57837;52.064;113.478;2023-01-24T12:30:38;93929.47;;;-26.34
70415;BMP280;57837;52.064;113.478;2023-01-24T12:33:58;93923.44;;;-26.45
70415;BMP280;57837;52.064;113.478;2023-01-24T12:40:23;93914.47;;;-26.38
70415;BMP280;57837;52.064;113.478;2023-01-24T12:43:39;93906.19;;;-26.50
70415;BMP280;57837;52.064;113.478;2023-01-24T12:47:10;93908.22;;;-26.54
70415;BMP280;57837;52.064;113.478;2023-01-24T12:53:34;93890.78;;;-26.64
70415;BMP280;57837;52.064;113.478;2023-01-24T13:00:18;93889.50;;;-26.53
70415;BMP280;57837;52.064;113.478;2023-01-24T13:03:32;93891.00;;;-26.52
70415;BMP280;57837;52.064;113.478;2023-01-24T13:13:44;93877.31;;;-26.60
70415;BMP280;57837;52.064;113.478;2023-01-24T13:24:24;93862.88;;;-26.68
70415;BMP280;57837;52.064;113.478;2023-01-24T13:28:00;93859.88;;;-26.70
70415;BMP280;57837;52.064;113.478;2023-01-24T13:34:19;93856.66;;;-26.77
70415;BMP280;57837;52.064;113.478;2023-01-24T13:37:28;93857.28;;;-27.03
70415;BMP280;57837;52.064;113.478;2023-01-24T13:40:32;93856.03;;;-27.27
70415;BMP280;57837;52.064;113.478;2023-01-24T13:43:59;93854.00;;;-27.52
70415;BMP280;57837;52.064;113.478;2023-01-24T13:47:21;93854.47;;;-27.63
70415;BMP280;57837;52.064;113.478;2023-01-24T13:50:27;93851.06;;;-27.69
70415;BMP280;57837;52.064;113.478;2023-01-24T13:54:02;93851.28;;;-27.64
70415;BMP280;57837;52.064;113.478;2023-01-24T14:00:21;93849.69;;;-27.78
70415;BMP280;57837;52.064;113.478;2023-01-24T14:03:36;93839.53;;;-27.88
70415;BMP280;57837;52.064;113.478;2023-01-24T14:06:45;93836.13;;;-27.94
70415;BMP280;57837;52.064;113.478;2023-01-24T14:10:00;93832.03;;;-27.72
70415;BMP280;57837;52.064;113.478;2023-01-24T14:13:38;93822.81;;;-27.48
70415;BMP280;57837;52.064;113.478;2023-01-24T14:19:46;93819.66;;;-27.70
70415;BMP280;57837;52.064;113.478;2023-01-24T14:22:54;93816.47;;;-27.71
70415;BMP280;57837;52.064;113.478;2023-01-24T14:26:00;93811.03;;;-27.51
70415;BMP280;57837;52.064;113.478;2023-01-24T14:29:16;93814.28;;;-27.38
70415;BMP280;57837;52.064;113.478;2023-01-24T14:32:29;93814.69;;;-27.34
70415;BMP280;57837;52.064;113.478;2023-01-24T14:35:50;93808.66;;;-27.38
70415;BMP280;57837;52.064;113.478;2023-01-24T14:42:17;93812.59;;;-27.44
70415;BMP280;57837;52.064;113.478;2023-01-24T14:45:25;93804.56;;;-27.38
70415;BMP280;57837;52.064;113.478;2023-01-24T14:48:29;93809.94;;;-27.49
70415;BMP280;57837;52.064;113.478;2023-01-24T14:51:33;93809.00;;;-27.48
70415;BMP280;57837;52.064;113.478;2023-01-24T14:54:36;93813.16;;;-27.35
70415;BMP280;57837;52.064;113.478;2023-01-24T14:57:41;93802.50;;;-27.41
70415;BMP280;57837;52.064;113.478;2023-01-24T15:00:44;93804.91;;;-27.41
70415;BMP280;57837;52.064;113.478;2023-01-24T15:03:47;93799.13;;;-27.46
70415;BMP280;57837;52.064;113.478;2023-01-24T15:07:05;93790.41;;;-27.62
70415;BMP280;57837;52.064;113.478;2023-01-24T15:10:12;93789.31;;;-27.59
70415;BMP280;57837;52.064;113.478;2023-01-24T15:13:24;93792.88;;;-27.55
70415;BMP280;57837;52.064;113.478;2023-01-24T15:16:34;93790.34;;;-27.69
70415;BMP280;57837;52.064;113.478;2023-01-24T15:19:37;93786.19;;;-27.81
70415;BMP280;57837;52.064;113.478;2023-01-24T15:22:41;93786.03;;;-27.73
70415;BMP280;57837;52.064;113.478;2023-01-24T15:25:44;93778.69;;;-27.80
70415;BMP280;57837;52.064;113.478;2023-01-24T15:28:47;93784.50;;;-27.81
70415;BMP280;57837;52.064;113.478;2023-01-24T15:31:51;93778.84;;;-27.88
70415;BMP280;57837;52.064;113.478;2023-01-24T15:38:28;93775.25;;;-27.92
70415;BMP280;57837;52.064;113.478;2023-01-24T15:41:37;93768.59;;;-27.83
70415;BMP280;57837;52.064;113.478;2023-01-24T15:45:00;93772.47;;;-27.89
70415;BMP280;57837;52.064;113.478;2023-01-24T15:48:21;93769.97;;;-28.02
70415;BMP280;57837;52.064;113.478;2023-01-24T15:51:31;93772.16;;;-28.07
70415;BMP280;57837;52.064;113.478;2023-01-24T15:54:41;93768.88;;;-27.93
70415;BMP280;57837;52.064;113.478;2023-01-24T15:57:45;93766.34;;;-27.85
70415;BMP280;57837;52.064;113.478;2023-01-24T16:00:52;93758.03;;;-27.97
70415;BMP280;57837;52.064;113.478;2023-01-24T16:04:16;93760.16;;;-28.37
70415;BMP280;57837;52.064;113.478;2023-01-24T16:07:20;93758.06;;;-28.62
70415;BMP280;57837;52.064;113.478;2023-01-24T16:10:24;93753.41;;;-28.78
70415;BMP280;57837;52.064;113.478;2023-01-24T16:13:35;93753.53;;;-28.86
70415;BMP280;57837;52.064;113.478;2023-01-24T16:16:39;93751.13;;;-28.86
70415;BMP280;57837;52.064;113.478;2023-01-24T16:19:44;93751.28;;;-28.66
70415;BMP280;57837;52.064;113.478;2023-01-24T16:22:47;93750.91;;;-28.48
70415;BMP280;57837;52.064;113.478;2023-01-24T16:25:54;93746.50;;;-28.38
70415;BMP280;57837;52.064;113.478;2023-01-24T16:28:58;93752.47;;;-28.41
70415;BMP280;57837;52.064;113.478;2023-01-24T16:32:02;93745.78;;;-28.53
70415;BMP280;57837;52.064;113.478;2023-01-24T16:35:08;93743.94;;;-28.73
70415;BMP280;57837;52.064;113.478;2023-01-24T16:38:13;93738.75;;;-29.06
70415;BMP280;57837;52.064;113.478;2023-01-24T16:41:20;93739.56;;;-28.99
70415;BMP280;57837;52.064;113.478;2023-01-24T16:44:23;93736.69;;;-28.73
70415;BMP280;57837;52.064;113.478;2023-01-24T16:47:27;93724.56;;;-28.51
70415;BMP280;57837;52.064;113.478;2023-01-24T16:50:30;93734.72;;;-28.63
70415;BMP280;57837;52.064;113.478;2023-01-24T16:53:35;93723.94;;;-28.60
70415;BMP280;57837;52.064;113.478;2023-01-24T16:56:39;93720.47;;;-28.51
70415;BMP280;57837;52.064;113.478;2023-01-24T16:59:42;93718.75;;;-28.57
70415;BMP280;57837;52.064;113.478;2023-01-24T17:02:49;93715.97;;;-28.54
70415;BMP280;57837;52.064;113.478;2023-01-24T17:05:52;93702.94;;;-28.74
70415;BMP280;57837;52.064;113.478;2023-01-24T17:08:57;93707.84;;;-28.68
70415;BMP280;57837;52.064;113.478;2023-01-24T17:12:01;93710.34;;;-28.76
70415;BMP280;57837;52.064;113.478;2023-01-24T17:15:16;93701.72;;;-28.85
70415;BMP280;57837;52.064;113.478;2023-01-24T17:18:20;93710.34;;;-28.97
70415;BMP280;57837;52.064;113.478;2023-01-24T17:21:24;93707.69;;;-29.17
70415;BMP280;57837;52.064;113.478;2023-01-24T17:24:28;93709.09;;;-29.08
70415;BMP280;57837;52.064;113.478;2023-01-24T17:27:33;93702.41;;;-28.91
70415;BMP280;57837;52.064;113.478;2023-01-24T17:30:37;93706.56;;;-29.00
70415;BMP280;57837;52.064;113.478;2023-01-24T17:33:40;93705.19;;;-29.09
70415;BMP280;57837;52.064;113.478;2023-01-24T17:36:43;93705.13;;;-29.16
70415;BMP280;57837;52.064;113.478;2023-01-24T17:39:48;93697.22;;;-29.03
70415;BMP280;57837;52.064;113.478;2023-01-24T17:42:53;93695.84;;;-29.12
70415;BMP280;57837;52.064;113.478;2023-01-24T17:45:59;93699.94;;;-29.13
70415;BMP280;57837;52.064;113.478;2023-01-24T17:49:02;93712.47;;;-29.24
70415;BMP280;57837;52.064;113.478;2023-01-24T17:52:06;93697.34;;;-29.26
70415;BMP280;57837;52.064;113.478;2023-01-24T17:55:09;93695.03;;;-29.19
70415;BMP280;57837;52.064;113.478;2023-01-24T17:58:13;93692.59;;;-29.19
70415;BMP280;57837;52.064;113.478;2023-01-24T18:01:18;93695.19;;;-29.21
70415;BMP280;57837;52.064;113.478;2023-01-24T18:04:21;93687.44;;;-29.31
70415;BMP280;57837;52.064;113.478;2023-01-24T18:07:25;93699.88;;;-29.19
70415;BMP280;57837;52.064;113.478;2023-01-24T18:10:28;93696.19;;;-29.15
70415;BMP280;57837;52.064;113.478;2023-01-24T18:13:32;93699.09;;;-29.20
70415;BMP280;57837;52.064;113.478;2023-01-24T18:16:35;93694.59;;;-29.23
70415;BMP280;57837;52.064;113.478;2023-01-24T18:19:39;93693.13;;;-29.02
70415;BMP280;57837;52.064;113.478;2023-01-24T18:22:42;93698.03;;;-28.96
70415;BMP280;57837;52.064;113.478;2023-01-24T18:25:45;93695.53;;;-29.02
70415;BMP280;57837;52.064;113.478;2023-01-24T18:28:48;93689.00;;;-29.23
70415;BMP280;57837;52.064;113.478;2023-01-24T18:31:53;93685.25;;;-29.26
70415;BMP280;57837;52.064;113.478;2023-01-24T18:34:56;93693.69;;;-29.22
70415;BMP280;57837;52.064;113.478;2023-01-24T18:37:59;93692.28;;;-29.31
70415;BMP280;57837;52.064;113.478;2023-01-24T18:41:03;93689.69;;;-29.44
70415;BMP280;57837;52.064;113.478;2023-01-24T18:44:10;93694.09;;;-29.33
70415;BMP280;57837;52.064;113.478;2023-01-24T18:47:15;93691.97;;;-29.58
70415;BMP280;57837;52.064;113.478;2023-01-24T18:50:18;93689.97;;;-29.84
70415;BMP280;57837;52.064;113.478;2023-01-24T18:53:22;93693.50;;;-30.09
70415;BMP280;57837;52.064;113.478;2023-01-24T18:56:25;93702.09;;;-30.21
70415;BMP280;57837;52.064;113.478;2023-01-24T18:59:29;93697.22;;;-30.36
70415;BMP280;57837;52.064;113.478;2023-01-24T19:02:32;93699.78;;;-30.38
70415;BMP280;57837;52.064;113.478;2023-01-24T19:05:42;93700.97;;;-30.34